createdAt,value
2023-03-04T00:01:26.881Z,61.80
2023-03-04T00:03:53.695Z,61.90
2023-03-04T00:06:20.779Z,61.90
2023-03-04T00:08:47.496Z,61.90
2023-03-04T00:11:14.316Z,61.90
2023-03-04T00:13:41.027Z,61.90
2023-03-04T00:16:07.837Z,62.00
2023-03-04T00:18:34.717Z,61.90
2023-03-04T00:21:01.481Z,61.90
2023-03-04T00:23:28.328Z,61.90
2023-03-04T00:25:55.480Z,62.10
2023-03-04T00:28:22.559Z,62.90
2023-03-04T00:30:49.378Z,62.20
2023-03-04T00:33:16.242Z,62.30
2023-03-04T00:35:43.063Z,62.30
2023-03-04T00:38:09.873Z,62.00
2023-03-04T00:40:36.693Z,62.00
2023-03-04T00:43:03.563Z,62.00
2023-03-04T00:45:30.294Z,61.80
2023-03-04T00:47:57.231Z,61.80
2023-03-04T00:50:23.939Z,61.60
2023-03-04T00:52:50.692Z,61.80
2023-03-04T00:55:17.545Z,61.80
2023-03-04T00:57:44.303Z,62.10
2023-03-04T01:00:11.771Z,62.10
2023-03-04T01:02:38.715Z,61.90
2023-03-04T01:05:07.249Z,61.80
2023-03-04T01:07:34.222Z,61.80
2023-03-04T01:10:00.970Z,62.00
2023-03-04T01:12:28.317Z,61.80
2023-03-04T01:14:55.125Z,62.80
2023-03-04T01:17:21.913Z,62.10
2023-03-04T01:19:48.685Z,62.10
2023-03-04T01:22:16.776Z,62.00
2023-03-04T01:24:43.929Z,62.10
2023-03-04T01:27:10.944Z,62.10
2023-03-04T01:29:37.742Z,62.10
2023-03-04T01:32:04.891Z,61.70
2023-03-04T01:34:31.687Z,61.90
2023-03-04T01:36:58.442Z,61.90
2023-03-04T01:39:25.208Z,61.90
2023-03-04T01:41:52.156Z,61.90
2023-03-04T01:44:18.988Z,61.90
2023-03-04T01:46:52.743Z,62.10
2023-03-04T01:49:19.738Z,62.10
2023-03-04T01:51:49.617Z,62.00
2023-03-04T01:54:19.301Z,61.80
2023-03-04T01:56:47.061Z,61.70
2023-03-04T01:59:13.875Z,61.80
2023-03-04T02:01:41.331Z,61.90
2023-03-04T02:04:08.562Z,61.70
2023-03-04T02:06:36.571Z,61.60
2023-03-04T02:09:04.061Z,61.70
2023-03-04T02:11:30.821Z,61.80
2023-03-04T02:13:57.798Z,61.80
2023-03-04T02:16:24.640Z,61.70
2023-03-04T02:18:51.729Z,61.60
2023-03-04T02:21:25.813Z,61.60
2023-03-04T02:24:10.287Z,61.70
2023-03-04T02:26:37.092Z,61.60
2023-03-04T02:29:03.907Z,61.90
2023-03-04T02:31:32.491Z,61.90
2023-03-04T02:34:04.603Z,61.90
2023-03-04T02:36:32.130Z,61.90
2023-03-04T02:39:15.688Z,62.00
2023-03-04T02:41:44.513Z,62.00
2023-03-04T02:44:17.240Z,62.00
2023-03-04T02:46:44.354Z,61.90
2023-03-04T02:49:11.530Z,63.10
2023-03-04T02:51:38.886Z,62.20
2023-03-04T02:54:05.684Z,62.30
2023-03-04T02:56:32.476Z,62.30
2023-03-04T02:58:59.245Z,62.40
2023-03-04T03:01:29.107Z,62.50
2023-03-04T03:03:56.185Z,62.30
2023-03-04T03:06:23.145Z,62.40
2023-03-04T03:08:50.304Z,62.70
2023-03-04T03:11:17.102Z,62.70
2023-03-04T03:13:43.885Z,62.80
2023-03-04T03:16:10.717Z,62.70
2023-03-04T03:18:37.457Z,62.80
2023-03-04T03:21:04.379Z,62.70
2023-03-04T03:23:31.157Z,62.80
2023-03-04T03:25:57.981Z,62.90
2023-03-04T03:28:24.842Z,63.00
2023-03-04T03:30:51.561Z,63.10
2023-03-04T03:33:18.689Z,63.40
2023-03-04T03:35:45.586Z,63.40
2023-03-04T03:38:12.488Z,63.40
2023-03-04T03:40:39.415Z,63.50
2023-03-04T03:43:06.257Z,63.60
2023-03-04T03:45:33.530Z,63.70
2023-03-04T03:48:00.606Z,63.70
2023-03-04T03:50:28.993Z,63.80
2023-03-04T03:52:55.729Z,63.90
2023-03-04T03:55:22.614Z,63.80
2023-03-04T03:57:49.378Z,63.90
2023-03-04T04:00:16.896Z,63.90
2023-03-04T04:02:43.763Z,63.90
2023-03-04T04:05:11.034Z,64.00
2023-03-04T04:07:37.857Z,64.00
2023-03-04T04:10:05.261Z,64.00
2023-03-04T04:12:32.068Z,64.20
2023-03-04T04:14:58.882Z,64.20
2023-03-04T04:17:25.610Z,64.20
2023-03-04T04:19:52.368Z,64.20
2023-03-04T04:22:20.610Z,64.30
2023-03-04T04:24:47.902Z,64.50
2023-03-04T04:27:14.734Z,64.50
2023-03-04T04:29:42.087Z,64.50
2023-03-04T04:32:09.151Z,64.50
2023-03-04T04:34:36.213Z,64.40
2023-03-04T04:37:02.997Z,64.30
2023-03-04T04:39:29.801Z,64.50
2023-03-04T04:41:56.606Z,64.60
2023-03-04T04:44:23.392Z,64.70
2023-03-04T04:46:50.153Z,64.70
2023-03-04T04:49:16.986Z,64.70
2023-03-04T04:51:43.773Z,64.80
2023-03-04T04:54:10.789Z,64.80
2023-03-04T04:56:37.592Z,64.80
2023-03-04T04:59:05.112Z,64.80
2023-03-04T05:01:31.966Z,65.00
2023-03-04T05:03:58.852Z,64.90
2023-03-04T05:06:25.649Z,65.00
2023-03-04T05:08:52.542Z,65.10
2023-03-04T05:11:20.127Z,65.00
2023-03-04T05:13:47.513Z,65.10
2023-03-04T05:16:15.219Z,65.10
2023-03-04T05:18:42.092Z,65.20
2023-03-04T05:21:08.885Z,65.40
2023-03-04T05:23:37.787Z,65.40
2023-03-04T05:26:05.425Z,66.30
2023-03-04T05:28:32.296Z,65.50
2023-03-04T05:31:00.125Z,65.50
2023-03-04T05:33:27.006Z,65.50
2023-03-04T05:35:55.121Z,65.50
2023-03-04T05:38:22.011Z,65.40
2023-03-04T05:40:49.152Z,65.50
2023-03-04T05:43:16.460Z,65.70
2023-03-04T05:45:43.618Z,65.60
2023-03-04T05:48:11.423Z,65.50
2023-03-04T05:50:38.181Z,65.60
2023-03-04T05:53:05.037Z,65.50
2023-03-04T05:55:31.865Z,65.40
2023-03-04T05:57:58.716Z,65.70
2023-03-04T06:00:25.644Z,65.60
2023-03-04T06:02:52.535Z,65.70
2023-03-04T06:05:19.478Z,65.70
2023-03-04T06:07:46.432Z,65.80
2023-03-04T06:10:15.045Z,65.90
2023-03-04T06:12:41.993Z,65.80
2023-03-04T06:15:10.401Z,65.70
2023-03-04T06:17:39.947Z,65.90
2023-03-04T06:20:09.043Z,65.90
2023-03-04T06:22:36.221Z,65.90
2023-03-04T06:25:03.147Z,65.80
2023-03-04T06:27:29.983Z,65.90
2023-03-04T06:29:56.892Z,65.90
2023-03-04T06:32:23.815Z,65.90
2023-03-04T06:34:50.792Z,66.00
2023-03-04T06:37:17.570Z,66.00
2023-03-04T06:39:45.212Z,66.00
2023-03-04T06:42:12.456Z,66.10
2023-03-04T06:44:39.434Z,66.10
2023-03-04T06:47:06.307Z,66.20
2023-03-04T06:49:33.126Z,66.20
2023-03-04T06:51:59.891Z,66.30
2023-03-04T06:54:26.666Z,66.50
2023-03-04T06:56:53.445Z,66.40
2023-03-04T06:59:20.216Z,66.50
2023-03-04T07:01:47.079Z,66.60
2023-03-04T07:04:14.124Z,66.50
2023-03-04T07:06:40.904Z,67.50
2023-03-04T07:09:07.696Z,66.60
2023-03-04T07:11:34.501Z,66.60
2023-03-04T07:14:01.396Z,66.70
2023-03-04T07:16:28.345Z,66.80
2023-03-04T07:18:55.227Z,66.80
2023-03-04T07:21:22.424Z,66.90
2023-03-04T07:23:49.480Z,66.90
2023-03-04T07:26:16.980Z,66.70
2023-03-04T07:28:43.889Z,66.80
2023-03-04T07:31:10.687Z,66.60
2023-03-04T07:33:37.488Z,66.60
2023-03-04T07:36:04.341Z,66.50
2023-03-04T07:38:31.087Z,67.50
2023-03-04T07:40:58.682Z,66.80
2023-03-04T07:43:25.653Z,66.80
2023-03-04T07:45:52.559Z,66.80
2023-03-04T07:48:19.661Z,66.60
2023-03-04T07:50:46.533Z,66.60
2023-03-04T07:53:13.693Z,66.80
2023-03-04T07:55:40.458Z,66.60
2023-03-04T07:58:07.238Z,66.70
2023-03-04T08:00:34.168Z,66.60
2023-03-04T08:03:00.949Z,66.40
2023-03-04T08:05:27.798Z,66.00
2023-03-04T08:07:58.153Z,66.30
2023-03-04T08:10:24.970Z,66.20
2023-03-04T08:12:51.754Z,66.40
2023-03-04T08:15:18.528Z,66.20
2023-03-04T08:17:45.599Z,66.10
2023-03-04T08:20:12.825Z,65.80
2023-03-04T08:22:39.638Z,65.90
2023-03-04T08:25:06.558Z,66.00
2023-03-04T08:27:33.310Z,65.60
2023-03-04T08:30:00.113Z,65.60
2023-03-04T08:32:26.921Z,65.40
2023-03-04T08:34:56.221Z,65.10
2023-03-04T08:37:23.600Z,65.30
2023-03-04T08:39:50.317Z,65.20
2023-03-04T08:42:17.063Z,65.10
2023-03-04T08:44:44.236Z,65.10
2023-03-04T08:47:11.783Z,64.80
2023-03-04T08:49:38.898Z,64.80
2023-03-04T08:52:06.076Z,64.70
2023-03-04T08:54:33.147Z,64.50
2023-03-04T08:57:00.605Z,64.40
2023-03-04T08:59:35.505Z,64.50
2023-03-04T09:02:03.952Z,64.60
2023-03-04T09:04:30.739Z,64.50
2023-03-04T09:06:57.528Z,64.60
2023-03-04T09:09:24.375Z,64.50
2023-03-04T09:11:51.172Z,64.40
2023-03-04T09:14:17.931Z,64.30
2023-03-04T09:16:45.088Z,64.00
2023-03-04T09:19:11.779Z,64.40
2023-03-04T09:21:38.893Z,64.30
2023-03-04T09:24:05.851Z,64.40
2023-03-04T09:26:32.946Z,64.50
2023-03-04T09:29:00.851Z,64.50
2023-03-04T09:31:27.919Z,64.50
2023-03-04T09:33:56.457Z,64.50
2023-03-04T09:36:23.256Z,64.80
2023-03-04T09:38:50.047Z,64.50
2023-03-04T09:41:26.225Z,64.50
2023-03-04T09:43:53.178Z,64.40
2023-03-04T09:46:33.748Z,64.40
2023-03-04T09:49:00.819Z,64.40
2023-03-04T09:51:51.375Z,64.40
2023-03-04T09:54:26.546Z,64.40
2023-03-04T09:56:57.317Z,64.30
2023-03-04T09:59:41.559Z,64.10
2023-03-04T10:02:22.766Z,64.30
2023-03-04T10:04:51.667Z,64.00
2023-03-04T10:07:24.292Z,64.00
2023-03-04T10:10:19.383Z,63.60
2023-03-04T10:12:46.932Z,63.70
2023-03-04T10:15:34.364Z,63.70
2023-03-04T10:18:22.025Z,63.70
2023-03-04T10:21:14.247Z,63.60
2023-03-04T10:23:41.873Z,63.50
2023-03-04T10:26:17.162Z,63.40
2023-03-04T10:28:44.180Z,63.20
2023-03-04T10:31:30.204Z,63.20
2023-03-04T10:33:57.012Z,63.20
2023-03-04T10:36:29.902Z,63.10
2023-03-04T10:39:02.383Z,62.90
2023-03-04T10:41:30.933Z,62.80
2023-03-04T10:44:02.073Z,62.40
2023-03-04T10:46:29.241Z,62.20
2023-03-04T10:48:56.289Z,62.30
2023-03-04T10:51:25.479Z,62.30
2023-03-04T10:54:00.075Z,62.20
2023-03-04T10:56:45.819Z,60.70
2023-03-04T10:59:42.875Z,60.40
2023-03-04T11:02:31.670Z,60.20
2023-03-04T11:05:21.561Z,60.10
2023-03-04T11:08:00.594Z,60.10
2023-03-04T11:10:31.087Z,60.00
2023-03-04T11:13:02.835Z,59.90
2023-03-04T11:15:31.347Z,59.90
2023-03-04T11:18:03.411Z,59.80
2023-03-04T11:20:38.500Z,59.90
2023-03-04T11:23:37.341Z,59.80
2023-03-04T11:26:31.347Z,59.70
2023-03-04T11:29:25.364Z,59.50
2023-03-04T11:32:01.332Z,59.30
2023-03-04T11:34:33.816Z,59.10
2023-03-04T11:37:19.476Z,59.10
2023-03-04T11:39:47.793Z,59.00
2023-03-04T11:42:43.076Z,58.80
2023-03-04T11:46:05.872Z,58.70
2023-03-04T11:49:02.208Z,58.50
2023-03-04T11:51:51.546Z,58.50
2023-03-04T11:54:30.370Z,58.40
2023-03-04T11:57:01.899Z,58.40
2023-03-04T11:59:31.965Z,58.10
2023-03-04T12:02:19.429Z,58.20
2023-03-04T12:05:01.197Z,58.00
2023-03-04T12:07:46.638Z,57.80
2023-03-04T12:10:50.233Z,57.70
2023-03-04T12:13:38.643Z,57.50
2023-03-04T12:16:30.676Z,57.30
2023-03-04T12:19:06.524Z,57.00
2023-03-04T12:21:51.569Z,56.80
2023-03-04T12:24:27.181Z,56.60
2023-03-04T12:26:53.988Z,56.70
2023-03-04T12:29:42.006Z,56.10
2023-03-04T12:32:26.972Z,55.80
2023-03-04T12:35:05.931Z,55.70
2023-03-04T12:37:58.878Z,55.30
2023-03-04T12:40:58.007Z,54.60
2023-03-04T12:43:58.393Z,55.00
2023-03-04T12:46:34.159Z,54.60
2023-03-04T12:49:17.093Z,54.50
2023-03-04T12:51:55.904Z,54.50
2023-03-04T12:54:32.828Z,54.70
2023-03-04T12:57:04.339Z,54.60
2023-03-04T12:59:38.814Z,54.80
2023-03-04T13:02:37.381Z,55.20
2023-03-04T13:05:25.599Z,54.80
2023-03-04T13:08:11.286Z,54.60
2023-03-04T13:10:38.540Z,54.50
2023-03-04T13:13:10.568Z,54.40
2023-03-04T13:15:37.931Z,54.30
2023-03-04T13:18:20.054Z,54.20
2023-03-04T13:20:47.229Z,54.60
2023-03-04T13:23:14.176Z,54.50
2023-03-04T13:25:45.336Z,54.60
2023-03-04T13:28:27.154Z,54.50
2023-03-04T13:30:57.178Z,54.50
2023-03-04T13:33:23.984Z,54.60
2023-03-04T13:36:02.230Z,54.50
2023-03-04T13:38:30.944Z,54.20
2023-03-04T13:41:00.639Z,54.00
2023-03-04T13:43:29.054Z,54.00
2023-03-04T13:45:56.995Z,54.10
2023-03-04T13:48:31.451Z,53.90
2023-03-04T13:50:58.908Z,54.10
2023-03-04T13:53:38.773Z,53.40
2023-03-04T13:56:37.157Z,53.90
2023-03-04T13:59:07.396Z,53.70
2023-03-04T14:02:01.050Z,53.50
2023-03-04T14:04:36.232Z,52.70
2023-03-04T14:07:25.949Z,52.50
2023-03-04T14:10:11.284Z,52.50
2023-03-04T14:12:46.538Z,51.00
2023-03-04T14:15:13.302Z,51.00
2023-03-04T14:17:40.516Z,51.30
2023-03-04T14:20:25.925Z,50.70
2023-03-04T14:22:52.986Z,51.20
2023-03-04T14:25:21.408Z,51.20
2023-03-04T14:27:48.595Z,51.30
2023-03-04T14:30:40.831Z,51.30
2023-03-04T14:33:14.255Z,51.20
2023-03-04T14:35:41.233Z,51.50
2023-03-04T14:38:16.718Z,50.80
2023-03-04T14:40:45.560Z,51.10
2023-03-04T14:43:17.920Z,51.40
2023-03-04T14:45:45.943Z,51.50
2023-03-04T14:48:24.954Z,51.50
2023-03-04T14:50:52.924Z,51.60
2023-03-04T14:53:21.411Z,51.40
2023-03-04T14:56:07.505Z,51.00
2023-03-04T14:58:38.795Z,50.90
2023-03-04T15:01:18.374Z,50.70
2023-03-04T15:04:04.121Z,50.40
2023-03-04T15:06:35.088Z,50.30
2023-03-04T15:09:22.873Z,50.40
2023-03-04T15:11:56.981Z,50.10
2023-03-04T15:14:46.564Z,50.50
2023-03-04T15:17:28.960Z,50.10
2023-03-04T15:20:26.603Z,50.10
2023-03-04T15:22:53.414Z,50.10
2023-03-04T15:25:20.619Z,49.80
2023-03-04T15:27:48.270Z,49.70
2023-03-04T15:30:19.029Z,49.80
2023-03-04T15:32:46.259Z,49.90
2023-03-04T15:35:13.497Z,49.80
2023-03-04T15:37:40.350Z,48.80
2023-03-04T15:40:15.256Z,48.60
2023-03-04T15:42:42.089Z,48.60
2023-03-04T15:45:18.846Z,48.70
2023-03-04T15:47:45.632Z,49.00
2023-03-04T15:50:12.354Z,49.30
2023-03-04T15:52:39.777Z,49.30
2023-03-04T15:55:07.583Z,49.50
2023-03-04T15:57:34.370Z,49.50
2023-03-04T16:00:01.290Z,49.60
2023-03-04T16:02:28.093Z,49.70
2023-03-04T16:04:54.865Z,49.50
2023-03-04T16:07:24.501Z,49.60
2023-03-04T16:09:57.151Z,49.60
2023-03-04T16:12:25.050Z,49.50
2023-03-04T16:14:52.879Z,49.50
2023-03-04T16:17:20.008Z,49.70
2023-03-04T16:19:47.880Z,50.00
2023-03-04T16:22:15.526Z,50.00
2023-03-04T16:24:42.375Z,50.10
2023-03-04T16:27:13.343Z,49.70
2023-03-04T16:29:40.234Z,49.80
2023-03-04T16:32:07.315Z,49.70
2023-03-04T16:34:34.068Z,49.80
2023-03-04T16:37:02.534Z,49.60
2023-03-04T16:39:29.730Z,49.80
2023-03-04T16:41:56.753Z,50.10
2023-03-04T16:44:23.588Z,50.10
2023-03-04T16:46:50.841Z,50.00
2023-03-04T16:49:17.992Z,50.20
2023-03-04T16:51:48.568Z,50.30
2023-03-04T16:54:18.259Z,51.10
2023-03-04T16:56:45.066Z,51.20
2023-03-04T16:59:16.181Z,51.20
2023-03-04T17:01:43.105Z,51.20
2023-03-04T17:04:09.947Z,51.40
2023-03-04T17:06:39.900Z,51.30
2023-03-04T17:09:08.059Z,51.40
2023-03-04T17:11:34.901Z,51.50
2023-03-04T17:14:02.118Z,51.80
2023-03-04T17:16:29.185Z,52.00
2023-03-04T17:18:56.230Z,51.90
2023-03-04T17:21:25.365Z,52.00
2023-03-04T17:23:52.948Z,51.90
2023-03-04T17:26:23.094Z,52.00
2023-03-04T17:28:50.617Z,52.00
2023-03-04T17:31:19.179Z,52.10
2023-03-04T17:33:46.253Z,52.00
2023-03-04T17:36:13.342Z,52.00
2023-03-04T17:38:40.280Z,52.30
2023-03-04T17:41:09.617Z,52.60
2023-03-04T17:43:36.461Z,52.60
2023-03-04T17:46:04.841Z,52.70
2023-03-04T17:48:31.645Z,52.90
2023-03-04T17:50:58.582Z,52.80
2023-03-04T17:53:25.439Z,52.70
2023-03-04T17:55:53.141Z,52.70
2023-03-04T17:58:19.963Z,52.80
2023-03-04T18:00:46.782Z,52.80
2023-03-04T18:03:13.820Z,52.90
2023-03-04T18:05:40.725Z,52.90
2023-03-04T18:08:07.567Z,52.90
2023-03-04T18:10:34.586Z,52.90
2023-03-04T18:13:01.380Z,53.00
2023-03-04T18:15:28.174Z,53.10
2023-03-04T18:17:55.012Z,53.10
2023-03-04T18:20:21.838Z,53.20
2023-03-04T18:22:48.597Z,53.10
2023-03-04T18:25:15.403Z,53.10
2023-03-04T18:27:42.277Z,53.20
2023-03-04T18:30:11.843Z,53.30
2023-03-04T18:32:51.298Z,53.30
2023-03-04T18:35:20.010Z,53.40
2023-03-04T18:37:48.016Z,53.60
2023-03-04T18:40:15.444Z,53.50
2023-03-04T18:42:44.364Z,53.60
2023-03-04T18:45:14.700Z,53.60
2023-03-04T18:47:41.997Z,53.60
2023-03-04T18:50:09.561Z,53.50
2023-03-04T18:52:36.450Z,53.60
2023-03-04T18:55:03.372Z,53.70
2023-03-04T18:57:30.192Z,53.80
2023-03-04T18:59:59.341Z,53.80
2023-03-04T19:02:42.625Z,53.80
2023-03-04T19:05:15.847Z,53.80
2023-03-04T19:07:42.724Z,53.90
2023-03-04T19:10:10.657Z,53.80
2023-03-04T19:12:37.520Z,53.80
2023-03-04T19:15:06.065Z,53.90
2023-03-04T19:17:33.114Z,54.00
2023-03-04T19:20:00.025Z,54.00
2023-03-04T19:22:26.861Z,54.20
2023-03-04T19:24:53.653Z,54.30
2023-03-04T19:27:20.500Z,54.30
2023-03-04T19:29:48.186Z,54.50
2023-03-04T19:32:17.369Z,54.50
2023-03-04T19:34:45.590Z,54.50
2023-03-04T19:37:13.232Z,54.50
2023-03-04T19:39:40.312Z,54.60
2023-03-04T19:42:07.401Z,54.70
2023-03-04T19:44:34.284Z,54.60
2023-03-04T19:47:01.169Z,54.60
2023-03-04T19:49:28.079Z,54.60
2023-03-04T19:51:54.889Z,54.60
2023-03-04T19:54:21.613Z,54.50
2023-03-04T19:56:48.441Z,54.70
2023-03-04T19:59:15.496Z,54.70
2023-03-04T20:01:42.761Z,54.80
2023-03-04T20:04:11.280Z,55.00
2023-03-04T20:06:39.319Z,54.80
2023-03-04T20:09:06.325Z,54.90
2023-03-04T20:11:33.223Z,55.00
2023-03-04T20:14:01.603Z,55.00
2023-03-04T20:16:28.638Z,55.00
2023-03-04T20:18:57.977Z,55.00
2023-03-04T20:21:25.993Z,55.20
2023-03-04T20:23:52.787Z,55.20
2023-03-04T20:26:19.625Z,55.30
2023-03-04T20:28:46.417Z,55.30
2023-03-04T20:31:26.396Z,55.40
2023-03-04T20:33:54.911Z,55.50
2023-03-04T20:36:22.803Z,55.50
2023-03-04T20:38:51.269Z,55.50
2023-03-04T20:41:23.646Z,55.50
2023-03-04T20:43:50.611Z,55.60
2023-03-04T20:46:39.852Z,55.70
2023-03-04T20:49:11.783Z,55.90
2023-03-04T20:51:38.599Z,56.00
2023-03-04T20:54:06.134Z,56.00
2023-03-04T20:56:33.232Z,56.10
2023-03-04T20:59:01.340Z,56.10
2023-03-04T21:01:28.454Z,56.10
2023-03-04T21:03:55.341Z,56.30
2023-03-04T21:06:24.949Z,56.40
2023-03-04T21:08:51.822Z,56.40
2023-03-04T21:11:18.597Z,56.30
2023-03-04T21:13:45.428Z,56.20
2023-03-04T21:16:13.689Z,56.30
2023-03-04T21:18:41.199Z,56.30
2023-03-04T21:21:14.356Z,56.30
2023-03-04T21:23:41.410Z,56.40
2023-03-04T21:26:08.340Z,56.50
2023-03-04T21:28:35.154Z,56.50
2023-03-04T21:31:02.017Z,56.50
2023-03-04T21:33:36.492Z,56.50
2023-03-04T21:36:03.555Z,56.50
2023-03-04T21:38:30.647Z,56.60
2023-03-04T21:40:57.577Z,56.80
2023-03-04T21:43:24.334Z,56.60
2023-03-04T21:45:55.828Z,56.50
2023-03-04T21:48:23.965Z,56.60
2023-03-04T21:50:51.126Z,56.70
2023-03-04T21:53:21.892Z,56.80
2023-03-04T21:55:49.771Z,56.80
2023-03-04T21:58:16.983Z,56.80
2023-03-04T22:00:43.974Z,56.80
2023-03-04T22:03:11.030Z,56.80
2023-03-04T22:05:44.768Z,56.80
2023-03-04T22:08:20.901Z,56.90
2023-03-04T22:10:47.753Z,56.90
2023-03-04T22:13:15.315Z,57.00
2023-03-04T22:15:43.407Z,56.80
2023-03-04T22:18:11.896Z,56.90
2023-03-04T22:20:40.220Z,57.00
2023-03-04T22:23:07.398Z,57.10
2023-03-04T22:25:38.225Z,56.90
2023-03-04T22:28:05.350Z,57.10
2023-03-04T22:30:33.067Z,57.00
2023-03-04T22:33:00.083Z,57.00
2023-03-04T22:35:27.017Z,57.60
2023-03-04T22:37:53.902Z,57.00
2023-03-04T22:40:21.042Z,57.60
2023-03-04T22:42:47.913Z,57.50
2023-03-04T22:45:15.843Z,57.00
2023-03-04T22:47:49.809Z,57.00
2023-03-04T22:50:17.216Z,57.10
2023-03-04T22:52:44.159Z,57.00
2023-03-04T22:55:12.619Z,57.60
2023-03-04T22:57:39.900Z,57.20
2023-03-04T23:00:15.883Z,57.50
2023-03-04T23:02:42.729Z,57.70
2023-03-04T23:05:11.173Z,57.60
2023-03-04T23:07:38.457Z,57.80
2023-03-04T23:10:06.133Z,57.50
2023-03-04T23:12:33.811Z,57.50
2023-03-04T23:15:00.682Z,57.50
2023-03-04T23:17:27.605Z,57.40
2023-03-04T23:19:54.448Z,57.60
2023-03-04T23:22:22.009Z,57.60
2023-03-04T23:24:48.844Z,57.80
2023-03-04T23:27:15.600Z,57.90
2023-03-04T23:29:42.479Z,57.70
2023-03-04T23:32:09.428Z,57.60
2023-03-04T23:34:36.681Z,57.60
2023-03-04T23:37:03.874Z,57.50
2023-03-04T23:39:30.629Z,57.60
2023-03-04T23:41:57.392Z,57.50
2023-03-04T23:44:24.895Z,57.30
2023-03-04T23:46:51.714Z,57.40
2023-03-04T23:49:18.783Z,57.40
2023-03-04T23:51:45.782Z,57.30
2023-03-04T23:54:13.208Z,57.50
2023-03-04T23:56:40.036Z,57.70
2023-03-04T23:59:07.869Z,57.70
